This is the latest recevied weather packets stored in our database for station/object KD5BIG-13. If no packets are shown the sender has not sent any weather packets the latest 1 day(s).
| Time | Temp. | Humidity | Pressure | Rain* | Wind** | Luminosity | Snow |
|---|---|---|---|---|---|---|---|
| 1778016592 | 25.56° C | 76% | 1013.9 hPa | 0 mm | 1.34 m/s, 273° | 202 W/m² | - |
| 1778016289 | 25.56° C | 76% | 1013.8 hPa | 0 mm | 1.34 m/s, 207° | 164 W/m² | - |
| 1778015985 | 25.56° C | 77% | 1013.6 hPa | 0 mm | 1.34 m/s, 276° | 167 W/m² | - |
| 1778015683 | 25.56° C | 76% | 1013.9 hPa | 0 mm | 0 m/s | 167 W/m² | - |
| 1778015379 | 25.56° C | 76% | 1014 hPa | 0 mm | 0 m/s | 105 W/m² | - |
| 1778015076 | 25.56° C | 77% | 1014.1 hPa | 0 mm | 0.89 m/s, 177° | 197 W/m² | - |
| 1778014773 | 25° C | 77% | 1014.2 hPa | 0 mm | 0 m/s | 215 W/m² | - |
| 1778014472 | 25° C | 76% | 1014.2 hPa | 0 mm | 0.45 m/s, 194° | 95 W/m² | - |
| 1778014168 | 25° C | 76% | 1014.1 hPa | 0 mm | 0 m/s | 108 W/m² | - |
| 1778013866 | 25.56° C | 76% | 1014.1 hPa | 0 mm | 0.45 m/s, 204° | 136 W/m² | - |
| 1778013563 | 25.56° C | 76% | 1014.2 hPa | 0 mm | 1.34 m/s, 219° | 112 W/m² | - |
| 1778013259 | 25.56° C | 75% | 1014.4 hPa | 0 mm | 0.89 m/s, 215° | 142 W/m² | - |
| 1778012956 | 25.56° C | 76% | 1014.1 hPa | 0 mm | 0 m/s | 202 W/m² | - |
| 1778012652 | 25.56° C | 75% | 1014.1 hPa | 0 mm | 0.45 m/s, 202° | 242 W/m² | - |
| 1778012349 | 25.56° C | 76% | 1014.1 hPa | 0 mm | 0 m/s | 236 W/m² | - |
| 1778012046 | 25.56° C | 75% | 1014.3 hPa | 0 mm | 1.34 m/s, 197° | 228 W/m² | - |
| 1778011744 | 25.56° C | 75% | 1014.3 hPa | 0 mm | 0 m/s | 166 W/m² | - |
| 1778011441 | 25° C | 75% | 1014.2 hPa | 0 mm | 0.45 m/s, 215° | 192 W/m² | - |
| 1778011136 | 25° C | 76% | 1014.4 hPa | 0 mm | 0 m/s | 169 W/m² | - |
| 1778010834 | 25° C | 76% | 1014.5 hPa | 0 mm | 1.34 m/s, 191° | 189 W/m² | - |
| 1778010531 | 25° C | 75% | 1014.5 hPa | 0 mm | 1.34 m/s, 227° | 144 W/m² | - |
| 1778010229 | 25° C | 76% | 1014.6 hPa | 0 mm | 0 m/s | 196 W/m² | - |
| 1778009928 | 25° C | 76% | 1014.7 hPa | 0 mm | 0.89 m/s, 198° | 134 W/m² | - |
| 1778009627 | 25° C | 75% | 1014.5 hPa | 0 mm | 0 m/s | 160 W/m² | - |
| 1778009324 | 25° C | 74% | 1014.6 hPa | 0 mm | 1.34 m/s, 180° | 152 W/m² | - |
* Rain latest hour (hover to see other rain measurements)
** Current wind speed in m/s (hover to see current wind gust speed)